sensor_id;sensor_type;location;lat;lon;timestamp;P1;durP1;ratioP1;P2;durP2;ratioP2
60847;SDS011;46681;47.696;9.140;2023-09-12T00:02:11;6.27;;;5.87;;
60847;SDS011;46681;47.696;9.140;2023-09-12T00:04:37;5.83;;;5.33;;
60847;SDS011;46681;47.696;9.140;2023-09-12T00:07:03;6.93;;;6.40;;
60847;SDS011;46681;47.696;9.140;2023-09-12T00:09:30;6.63;;;5.97;;
60847;SDS011;46681;47.696;9.140;2023-09-12T00:11:56;7.80;;;5.80;;
60847;SDS011;46681;47.696;9.140;2023-09-12T00:14:21;6.60;;;6.10;;
60847;SDS011;46681;47.696;9.140;2023-09-12T00:16:46;6.33;;;5.83;;
60847;SDS011;46681;47.696;9.140;2023-09-12T00:19:12;6.57;;;6.07;;
60847;SDS011;46681;47.696;9.140;2023-09-12T00:21:41;6.30;;;5.70;;
60847;SDS011;46681;47.696;9.140;2023-09-12T00:24:07;6.23;;;5.73;;
60847;SDS011;46681;47.696;9.140;2023-09-12T00:26:32;6.73;;;6.13;;
60847;SDS011;46681;47.696;9.140;2023-09-12T00:28:58;6.23;;;5.73;;
60847;SDS011;46681;47.696;9.140;2023-09-12T00:31:23;6.40;;;5.90;;
60847;SDS011;46681;47.696;9.140;2023-09-12T00:33:49;5.93;;;5.50;;
60847;SDS011;46681;47.696;9.140;2023-09-12T00:36:14;6.80;;;6.20;;
60847;SDS011;46681;47.696;9.140;2023-09-12T00:38:40;7.03;;;6.37;;
60847;SDS011;46681;47.696;9.140;2023-09-12T00:41:08;6.53;;;6.03;;
60847;SDS011;46681;47.696;9.140;2023-09-12T00:43:33;5.93;;;5.53;;
60847;SDS011;46681;47.696;9.140;2023-09-12T00:45:59;6.13;;;5.63;;
60847;SDS011;46681;47.696;9.140;2023-09-12T00:48:25;7.20;;;6.50;;
60847;SDS011;46681;47.696;9.140;2023-09-12T00:50:51;7.47;;;5.80;;
60847;SDS011;46681;47.696;9.140;2023-09-12T00:53:17;7.10;;;6.50;;
60847;SDS011;46681;47.696;9.140;2023-09-12T00:55:48;6.70;;;6.10;;
60847;SDS011;46681;47.696;9.140;2023-09-12T00:58:17;6.30;;;5.80;;
60847;SDS011;46681;47.696;9.140;2023-09-12T01:00:43;6.20;;;5.70;;
60847;SDS011;46681;47.696;9.140;2023-09-12T01:03:09;6.93;;;6.30;;
60847;SDS011;46681;47.696;9.140;2023-09-12T01:05:37;6.43;;;5.93;;
60847;SDS011;46681;47.696;9.140;2023-09-12T01:08:02;6.67;;;5.90;;
60847;SDS011;46681;47.696;9.140;2023-09-12T01:10:28;6.40;;;5.90;;
60847;SDS011;46681;47.696;9.140;2023-09-12T01:12:56;6.30;;;5.73;;
60847;SDS011;46681;47.696;9.140;2023-09-12T01:15:21;6.23;;;5.83;;
60847;SDS011;46681;47.696;9.140;2023-09-12T01:17:47;6.57;;;6.07;;
60847;SDS011;46681;47.696;9.140;2023-09-12T01:20:31;7.23;;;6.73;;
60847;SDS011;46681;47.696;9.140;2023-09-12T01:28:08;6.17;;;5.70;;
60847;SDS011;46681;47.696;9.140;2023-09-12T01:30:37;6.70;;;6.13;;
60847;SDS011;46681;47.696;9.140;2023-09-12T01:33:06;6.30;;;5.90;;
60847;SDS011;46681;47.696;9.140;2023-09-12T01:35:32;6.60;;;6.20;;
60847;SDS011;46681;47.696;9.140;2023-09-12T01:37:57;5.97;;;5.57;;
60847;SDS011;46681;47.696;9.140;2023-09-12T01:40:39;7.03;;;6.47;;
60847;SDS011;46681;47.696;9.140;2023-09-12T01:43:09;7.70;;;6.10;;
60847;SDS011;46681;47.696;9.140;2023-09-12T01:45:36;7.47;;;6.37;;
60847;SDS011;46681;47.696;9.140;2023-09-12T01:48:03;7.07;;;6.50;;
60847;SDS011;46681;47.696;9.140;2023-09-12T01:50:30;7.80;;;6.17;;
60847;SDS011;46681;47.696;9.140;2023-09-12T01:52:56;6.70;;;6.10;;
60847;SDS011;46681;47.696;9.140;2023-09-12T01:55:22;7.03;;;6.30;;
60847;SDS011;46681;47.696;9.140;2023-09-12T01:57:49;6.87;;;6.27;;
60847;SDS011;46681;47.696;9.140;2023-09-12T02:00:17;6.70;;;6.20;;
60847;SDS011;46681;47.696;9.140;2023-09-12T02:02:43;6.53;;;6.03;;
60847;SDS011;46681;47.696;9.140;2023-09-12T02:07:44;6.57;;;5.97;;
60847;SDS011;46681;47.696;9.140;2023-09-12T02:10:10;6.87;;;6.37;;
60847;SDS011;46681;47.696;9.140;2023-09-12T02:12:37;6.83;;;6.27;;
60847;SDS011;46681;47.696;9.140;2023-09-12T02:15:03;6.83;;;6.33;;
60847;SDS011;46681;47.696;9.140;2023-09-12T02:17:29;7.10;;;6.50;;
60847;SDS011;46681;47.696;9.140;2023-09-12T02:19:54;6.70;;;6.10;;
60847;SDS011;46681;47.696;9.140;2023-09-12T02:22:22;6.80;;;6.27;;
60847;SDS011;46681;47.696;9.140;2023-09-12T02:24:48;6.40;;;6.00;;
60847;SDS011;46681;47.696;9.140;2023-09-12T02:27:15;6.23;;;5.80;;
60847;SDS011;46681;47.696;9.140;2023-09-12T02:29:41;6.00;;;5.57;;
60847;SDS011;46681;47.696;9.140;2023-09-12T02:32:07;7.27;;;6.67;;
60847;SDS011;46681;47.696;9.140;2023-09-12T02:34:33;6.77;;;6.17;;
60847;SDS011;46681;47.696;9.140;2023-09-12T02:36:59;7.17;;;6.57;;
60847;SDS011;46681;47.696;9.140;2023-09-12T02:39:24;7.07;;;6.40;;
60847;SDS011;46681;47.696;9.140;2023-09-12T02:41:53;7.03;;;6.43;;
60847;SDS011;46681;47.696;9.140;2023-09-12T02:44:18;6.50;;;6.00;;
60847;SDS011;46681;47.696;9.140;2023-09-12T02:46:44;6.57;;;6.00;;
60847;SDS011;46681;47.696;9.140;2023-09-12T02:49:10;6.67;;;5.97;;
60847;SDS011;46681;47.696;9.140;2023-09-12T02:51:39;7.17;;;6.43;;
60847;SDS011;46681;47.696;9.140;2023-09-12T02:54:05;6.67;;;6.17;;
60847;SDS011;46681;47.696;9.140;2023-09-12T02:56:30;7.03;;;6.23;;
60847;SDS011;46681;47.696;9.140;2023-09-12T02:58:56;6.77;;;6.17;;
60847;SDS011;46681;47.696;9.140;2023-09-12T03:01:23;7.17;;;6.57;;
60847;SDS011;46681;47.696;9.140;2023-09-12T03:03:48;7.00;;;6.40;;
60847;SDS011;46681;47.696;9.140;2023-09-12T03:06:14;6.60;;;6.10;;
60847;SDS011;46681;47.696;9.140;2023-09-12T03:08:41;7.40;;;6.80;;
60847;SDS011;46681;47.696;9.140;2023-09-12T03:11:07;7.07;;;6.37;;
60847;SDS011;46681;47.696;9.140;2023-09-12T03:13:33;6.73;;;6.23;;
60847;SDS011;46681;47.696;9.140;2023-09-12T03:16:02;6.97;;;6.37;;
60847;SDS011;46681;47.696;9.140;2023-09-12T03:18:27;7.20;;;6.60;;
60847;SDS011;46681;47.696;9.140;2023-09-12T03:20:53;7.40;;;6.80;;
60847;SDS011;46681;47.696;9.140;2023-09-12T03:23:21;6.77;;;6.27;;
60847;SDS011;46681;47.696;9.140;2023-09-12T03:25:47;7.03;;;6.53;;
60847;SDS011;46681;47.696;9.140;2023-09-12T03:28:12;6.90;;;6.40;;
60847;SDS011;46681;47.696;9.140;2023-09-12T03:30:40;6.50;;;6.00;;
60847;SDS011;46681;47.696;9.140;2023-09-12T03:33:05;6.70;;;6.10;;
60847;SDS011;46681;47.696;9.140;2023-09-12T03:35:31;7.27;;;6.77;;
60847;SDS011;46681;47.696;9.140;2023-09-12T03:37:58;6.33;;;5.83;;
60847;SDS011;46681;47.696;9.140;2023-09-12T03:40:23;6.87;;;6.23;;
60847;SDS011;46681;47.696;9.140;2023-09-12T03:42:51;6.83;;;6.23;;
60847;SDS011;46681;47.696;9.140;2023-09-12T03:45:16;7.20;;;6.70;;
60847;SDS011;46681;47.696;9.140;2023-09-12T03:47:45;7.00;;;6.10;;
60847;SDS011;46681;47.696;9.140;2023-09-12T03:50:10;7.17;;;6.40;;
60847;SDS011;46681;47.696;9.140;2023-09-12T03:52:38;6.63;;;6.13;;
60847;SDS011;46681;47.696;9.140;2023-09-12T03:55:04;6.93;;;6.43;;
60847;SDS011;46681;47.696;9.140;2023-09-12T03:57:30;7.50;;;6.67;;
60847;SDS011;46681;47.696;9.140;2023-09-12T04:00:08;6.93;;;6.33;;
60847;SDS011;46681;47.696;9.140;2023-09-12T04:02:35;6.87;;;6.30;;
60847;SDS011;46681;47.696;9.140;2023-09-12T04:05:00;7.30;;;6.70;;
60847;SDS011;46681;47.696;9.140;2023-09-12T04:07:26;6.73;;;6.23;;
60847;SDS011;46681;47.696;9.140;2023-09-12T04:09:52;6.57;;;6.17;;
60847;SDS011;46681;47.696;9.140;2023-09-12T04:12:19;6.83;;;6.33;;
60847;SDS011;46681;47.696;9.140;2023-09-12T04:14:44;7.47;;;6.87;;
60847;SDS011;46681;47.696;9.140;2023-09-12T04:17:10;6.63;;;6.13;;
60847;SDS011;46681;47.696;9.140;2023-09-12T04:19:38;6.97;;;6.47;;
60847;SDS011;46681;47.696;9.140;2023-09-12T04:22:03;6.97;;;6.47;;
60847;SDS011;46681;47.696;9.140;2023-09-12T04:24:33;7.10;;;6.60;;
60847;SDS011;46681;47.696;9.140;2023-09-12T04:26:59;7.03;;;6.43;;
60847;SDS011;46681;47.696;9.140;2023-09-12T04:29:28;6.97;;;6.47;;
60847;SDS011;46681;47.696;9.140;2023-09-12T04:31:54;6.77;;;6.27;;
60847;SDS011;46681;47.696;9.140;2023-09-12T04:34:19;6.80;;;6.20;;
60847;SDS011;46681;47.696;9.140;2023-09-12T04:36:49;6.23;;;5.73;;
60847;SDS011;46681;47.696;9.140;2023-09-12T04:39:15;6.43;;;5.93;;
60847;SDS011;46681;47.696;9.140;2023-09-12T04:41:42;7.00;;;6.40;;
60847;SDS011;46681;47.696;9.140;2023-09-12T04:44:10;7.03;;;6.47;;
60847;SDS011;46681;47.696;9.140;2023-09-12T04:46:43;6.80;;;6.30;;
60847;SDS011;46681;47.696;9.140;2023-09-12T04:49:10;6.43;;;5.83;;
60847;SDS011;46681;47.696;9.140;2023-09-12T04:51:40;6.67;;;6.17;;
60847;SDS011;46681;47.696;9.140;2023-09-12T04:54:07;7.17;;;6.47;;
60847;SDS011;46681;47.696;9.140;2023-09-12T04:56:39;6.70;;;6.20;;
60847;SDS011;46681;47.696;9.140;2023-09-12T04:59:05;6.83;;;6.33;;
60847;SDS011;46681;47.696;9.140;2023-09-12T05:01:38;6.60;;;6.00;;
60847;SDS011;46681;47.696;9.140;2023-09-12T05:04:03;7.30;;;6.57;;
60847;SDS011;46681;47.696;9.140;2023-09-12T05:06:35;7.03;;;6.53;;
60847;SDS011;46681;47.696;9.140;2023-09-12T05:09:03;7.30;;;6.77;;
60847;SDS011;46681;47.696;9.140;2023-09-12T05:11:29;7.60;;;6.87;;
60847;SDS011;46681;47.696;9.140;2023-09-12T05:14:11;7.70;;;7.10;;
60847;SDS011;46681;47.696;9.140;2023-09-12T05:16:44;7.40;;;6.70;;
60847;SDS011;46681;47.696;9.140;2023-09-12T05:19:12;7.93;;;7.13;;
60847;SDS011;46681;47.696;9.140;2023-09-12T05:21:46;8.77;;;8.03;;
60847;SDS011;46681;47.696;9.140;2023-09-12T05:24:25;8.87;;;7.60;;
60847;SDS011;46681;47.696;9.140;2023-09-12T05:26:53;8.80;;;8.00;;
60847;SDS011;46681;47.696;9.140;2023-09-12T05:29:18;10.07;;;9.03;;
60847;SDS011;46681;47.696;9.140;2023-09-12T05:31:48;8.60;;;7.90;;
60847;SDS011;46681;47.696;9.140;2023-09-12T05:34:13;9.33;;;8.43;;
60847;SDS011;46681;47.696;9.140;2023-09-12T05:36:39;9.60;;;8.70;;
60847;SDS011;46681;47.696;9.140;2023-09-12T05:39:06;9.20;;;8.30;;
60847;SDS011;46681;47.696;9.140;2023-09-12T05:41:39;8.60;;;7.90;;
60847;SDS011;46681;47.696;9.140;2023-09-12T05:44:13;12.37;;;8.13;;
60847;SDS011;46681;47.696;9.140;2023-09-12T05:46:51;9.20;;;8.40;;
60847;SDS011;46681;47.696;9.140;2023-09-12T05:49:17;9.13;;;8.23;;
60847;SDS011;46681;47.696;9.140;2023-09-12T05:51:49;9.17;;;8.23;;
60847;SDS011;46681;47.696;9.140;2023-09-12T05:59:54;10.00;;;8.10;;
60847;SDS011;46681;47.696;9.140;2023-09-12T06:02:29;8.73;;;7.90;;
60847;SDS011;46681;47.696;9.140;2023-09-12T06:05:08;9.70;;;8.53;;
60847;SDS011;46681;47.696;9.140;2023-09-12T06:07:38;8.27;;;7.43;;
60847;SDS011;46681;47.696;9.140;2023-09-12T06:10:19;11.13;;;8.80;;
60847;SDS011;46681;47.696;9.140;2023-09-12T06:12:48;9.70;;;8.57;;
60847;SDS011;46681;47.696;9.140;2023-09-12T06:15:17;10.17;;;8.47;;
60847;SDS011;46681;47.696;9.140;2023-09-12T06:17:47;9.07;;;7.77;;
60847;SDS011;46681;47.696;9.140;2023-09-12T06:20:12;8.90;;;8.07;;
60847;SDS011;46681;47.696;9.140;2023-09-12T06:22:38;10.03;;;7.97;;
60847;SDS011;46681;47.696;9.140;2023-09-12T06:25:27;8.30;;;7.57;;
60847;SDS011;46681;47.696;9.140;2023-09-12T06:27:55;8.67;;;7.80;;
60847;SDS011;46681;47.696;9.140;2023-09-12T06:30:24;10.00;;;7.60;;
60847;SDS011;46681;47.696;9.140;2023-09-12T06:32:51;12.50;;;8.40;;
60847;SDS011;46681;47.696;9.140;2023-09-12T06:35:23;9.70;;;8.70;;
60847;SDS011;46681;47.696;9.140;2023-09-12T06:37:49;8.70;;;7.87;;
60847;SDS011;46681;47.696;9.140;2023-09-12T06:40:15;9.33;;;8.53;;
60847;SDS011;46681;47.696;9.140;2023-09-12T06:42:43;9.17;;;8.37;;
60847;SDS011;46681;47.696;9.140;2023-09-12T06:45:11;8.80;;;7.93;;
60847;SDS011;46681;47.696;9.140;2023-09-12T06:47:37;8.33;;;7.63;;
60847;SDS011;46681;47.696;9.140;2023-09-12T06:50:27;9.27;;;8.37;;
60847;SDS011;46681;47.696;9.140;2023-09-12T06:55:58;9.00;;;8.20;;
60847;SDS011;46681;47.696;9.140;2023-09-12T07:01:13;8.37;;;7.67;;
60847;SDS011;46681;47.696;9.140;2023-09-12T07:03:46;9.77;;;8.87;;
60847;SDS011;46681;47.696;9.140;2023-09-12T07:06:17;9.43;;;8.63;;
60847;SDS011;46681;47.696;9.140;2023-09-12T07:09:00;8.97;;;8.17;;
60847;SDS011;46681;47.696;9.140;2023-09-12T07:11:26;8.77;;;7.97;;
60847;SDS011;46681;47.696;9.140;2023-09-12T07:14:11;9.50;;;8.67;;
60847;SDS011;46681;47.696;9.140;2023-09-12T07:16:49;8.33;;;7.73;;
60847;SDS011;46681;47.696;9.140;2023-09-12T07:19:23;9.23;;;8.47;;
60847;SDS011;46681;47.696;9.140;2023-09-12T07:22:05;10.20;;;9.20;;
60847;SDS011;46681;47.696;9.140;2023-09-12T07:24:48;10.10;;;9.20;;
60847;SDS011;46681;47.696;9.140;2023-09-12T07:27:24;9.33;;;8.43;;
60847;SDS011;46681;47.696;9.140;2023-09-12T07:29:49;8.63;;;7.87;;
60847;SDS011;46681;47.696;9.140;2023-09-12T07:32:15;8.70;;;8.00;;
60847;SDS011;46681;47.696;9.140;2023-09-12T07:34:41;8.10;;;7.50;;
60847;SDS011;46681;47.696;9.140;2023-09-12T07:37:15;8.40;;;7.80;;
60847;SDS011;46681;47.696;9.140;2023-09-12T07:42:31;10.20;;;9.30;;
60847;SDS011;46681;47.696;9.140;2023-09-12T07:45:11;8.97;;;8.07;;
60847;SDS011;46681;47.696;9.140;2023-09-12T07:50:41;8.43;;;7.63;;
60847;SDS011;46681;47.696;9.140;2023-09-12T07:53:19;8.70;;;7.93;;
60847;SDS011;46681;47.696;9.140;2023-09-12T07:55:50;8.50;;;7.80;;
60847;SDS011;46681;47.696;9.140;2023-09-12T07:58:22;8.53;;;7.83;;
60847;SDS011;46681;47.696;9.140;2023-09-12T08:00:57;8.43;;;7.73;;
60847;SDS011;46681;47.696;9.140;2023-09-12T08:06:40;8.10;;;7.30;;
60847;SDS011;46681;47.696;9.140;2023-09-12T08:15:11;8.50;;;7.80;;
60847;SDS011;46681;47.696;9.140;2023-09-12T08:17:46;8.33;;;7.57;;
60847;SDS011;46681;47.696;9.140;2023-09-12T08:20:36;9.60;;;7.40;;
60847;SDS011;46681;47.696;9.140;2023-09-12T08:25:59;8.17;;;7.47;;
60847;SDS011;46681;47.696;9.140;2023-09-12T08:31:44;8.40;;;7.80;;
60847;SDS011;46681;47.696;9.140;2023-09-12T08:34:26;9.27;;;8.47;;
60847;SDS011;46681;47.696;9.140;2023-09-12T08:37:03;8.20;;;7.50;;
60847;SDS011;46681;47.696;9.140;2023-09-12T08:39:39;8.57;;;7.87;;
60847;SDS011;46681;47.696;9.140;2023-09-12T08:48:08;7.93;;;7.33;;
60847;SDS011;46681;47.696;9.140;2023-09-12T08:50:39;9.67;;;7.13;;
60847;SDS011;46681;47.696;9.140;2023-09-12T08:53:05;9.70;;;7.53;;
60847;SDS011;46681;47.696;9.140;2023-09-12T08:55:35;7.60;;;7.00;;
60847;SDS011;46681;47.696;9.140;2023-09-12T08:58:22;7.23;;;6.63;;
60847;SDS011;46681;47.696;9.140;2023-09-12T09:00:52;7.70;;;7.00;;
60847;SDS011;46681;47.696;9.140;2023-09-12T09:03:50;7.70;;;7.03;;
60847;SDS011;46681;47.696;9.140;2023-09-12T09:06:17;7.97;;;7.27;;
60847;SDS011;46681;47.696;9.140;2023-09-12T09:09:06;6.60;;;6.10;;
60847;SDS011;46681;47.696;9.140;2023-09-12T09:11:47;7.20;;;6.63;;
60847;SDS011;46681;47.696;9.140;2023-09-12T09:14:22;7.93;;;7.23;;
60847;SDS011;46681;47.696;9.140;2023-09-12T09:17:08;7.27;;;6.77;;
60847;SDS011;46681;47.696;9.140;2023-09-12T09:19:41;7.13;;;6.50;;
60847;SDS011;46681;47.696;9.140;2023-09-12T09:22:17;7.70;;;7.10;;
60847;SDS011;46681;47.696;9.140;2023-09-12T09:28:42;7.00;;;6.50;;
60847;SDS011;46681;47.696;9.140;2023-09-12T09:31:19;7.67;;;7.07;;
60847;SDS011;46681;47.696;9.140;2023-09-12T09:37:27;6.70;;;6.10;;
60847;SDS011;46681;47.696;9.140;2023-09-12T09:40:22;7.17;;;6.57;;
60847;SDS011;46681;47.696;9.140;2023-09-12T09:42:53;6.47;;;5.97;;
60847;SDS011;46681;47.696;9.140;2023-09-12T09:45:42;6.30;;;5.80;;
60847;SDS011;46681;47.696;9.140;2023-09-12T09:51:14;6.23;;;5.70;;
60847;SDS011;46681;47.696;9.140;2023-09-12T09:53:56;5.80;;;5.40;;
60847;SDS011;46681;47.696;9.140;2023-09-12T09:56:55;6.23;;;5.73;;
60847;SDS011;46681;47.696;9.140;2023-09-12T09:59:26;5.80;;;5.40;;
60847;SDS011;46681;47.696;9.140;2023-09-12T10:04:53;6.40;;;5.90;;
60847;SDS011;46681;47.696;9.140;2023-09-12T10:07:37;6.30;;;5.80;;
60847;SDS011;46681;47.696;9.140;2023-09-12T10:10:38;6.00;;;5.43;;
60847;SDS011;46681;47.696;9.140;2023-09-12T10:16:48;5.90;;;5.50;;
60847;SDS011;46681;47.696;9.140;2023-09-12T10:19:58;5.80;;;5.40;;
60847;SDS011;46681;47.696;9.140;2023-09-12T10:25:54;5.80;;;5.40;;
60847;SDS011;46681;47.696;9.140;2023-09-12T10:43:52;5.63;;;5.20;;
60847;SDS011;46681;47.696;9.140;2023-09-12T11:37:28;5.53;;;5.13;;
60847;SDS011;46681;47.696;9.140;2023-09-12T11:42:53;4.53;;;4.30;;
60847;SDS011;46681;47.696;9.140;2023-09-12T11:45:26;5.33;;;4.93;;
60847;SDS011;46681;47.696;9.140;2023-09-12T11:47:54;5.50;;;5.07;;
60847;SDS011;46681;47.696;9.140;2023-09-12T11:50:53;4.83;;;4.53;;
60847;SDS011;46681;47.696;9.140;2023-09-12T11:53:42;4.87;;;4.57;;
60847;SDS011;46681;47.696;9.140;2023-09-12T11:56:21;4.80;;;4.40;;
60847;SDS011;46681;47.696;9.140;2023-09-12T11:59:14;5.63;;;5.20;;
60847;SDS011;46681;47.696;9.140;2023-09-12T12:02:18;5.00;;;4.60;;
60847;SDS011;46681;47.696;9.140;2023-09-12T12:04:49;4.90;;;4.60;;
60847;SDS011;46681;47.696;9.140;2023-09-12T12:07:29;5.03;;;4.60;;
60847;SDS011;46681;47.696;9.140;2023-09-12T12:10:25;5.07;;;4.67;;
60847;SDS011;46681;47.696;9.140;2023-09-12T12:16:52;4.53;;;4.10;;
60847;SDS011;46681;47.696;9.140;2023-09-12T12:22:44;4.57;;;4.20;;
60847;SDS011;46681;47.696;9.140;2023-09-12T12:28:34;4.73;;;4.43;;
60847;SDS011;46681;47.696;9.140;2023-09-12T12:34:28;5.22;;;4.82;;
60847;SDS011;46681;47.696;9.140;2023-09-12T12:36:56;4.85;;;4.45;;
60847;SDS011;46681;47.696;9.140;2023-09-12T12:39:45;4.88;;;4.50;;
60847;SDS011;46681;47.696;9.140;2023-09-12T12:42:13;5.43;;;4.13;;
60847;SDS011;46681;47.696;9.140;2023-09-12T12:44:56;4.97;;;4.50;;
60847;SDS011;46681;47.696;9.140;2023-09-12T12:50:15;4.68;;;4.38;;
60847;SDS011;46681;47.696;9.140;2023-09-12T12:52:55;5.55;;;4.47;;
60847;SDS011;46681;47.696;9.140;2023-09-12T12:55:39;4.85;;;4.55;;
60847;SDS011;46681;47.696;9.140;2023-09-12T13:01:34;4.70;;;4.32;;
60847;SDS011;46681;47.696;9.140;2023-09-12T13:04:09;4.53;;;4.13;;
60847;SDS011;46681;47.696;9.140;2023-09-12T13:06:56;4.22;;;4.03;;
60847;SDS011;46681;47.696;9.140;2023-09-12T13:12:19;5.18;;;4.47;;
60847;SDS011;46681;47.696;9.140;2023-09-12T13:15:22;4.28;;;3.97;;
60847;SDS011;46681;47.696;9.140;2023-09-12T13:18:03;4.75;;;4.15;;
60847;SDS011;46681;47.696;9.140;2023-09-12T13:21:19;4.78;;;4.38;;
60847;SDS011;46681;47.696;9.140;2023-09-12T13:23:51;3.90;;;3.70;;
60847;SDS011;46681;47.696;9.140;2023-09-12T13:26:40;4.05;;;3.75;;
60847;SDS011;46681;47.696;9.140;2023-09-12T13:29:07;4.00;;;3.70;;
60847;SDS011;46681;47.696;9.140;2023-09-12T13:31:51;3.58;;;3.38;;
60847;SDS011;46681;47.696;9.140;2023-09-12T13:35:01;3.60;;;3.40;;
60847;SDS011;46681;47.696;9.140;2023-09-12T13:43:59;3.60;;;3.40;;
60847;SDS011;46681;47.696;9.140;2023-09-12T13:46:55;4.07;;;3.77;;
60847;SDS011;46681;47.696;9.140;2023-09-12T13:49:45;4.20;;;3.90;;
60847;SDS011;46681;47.696;9.140;2023-09-12T14:07:43;4.73;;;4.43;;
60847;SDS011;46681;47.696;9.140;2023-09-12T14:13:41;4.70;;;4.40;;
60847;SDS011;46681;47.696;9.140;2023-09-12T14:16:23;4.97;;;4.57;;
60847;SDS011;46681;47.696;9.140;2023-09-12T14:34:10;5.93;;;5.50;;
60847;SDS011;46681;47.696;9.140;2023-09-12T14:46:09;6.13;;;5.47;;
60847;SDS011;46681;47.696;9.140;2023-09-12T14:48:58;6.13;;;5.53;;
60847;SDS011;46681;47.696;9.140;2023-09-12T14:51:33;5.37;;;4.80;;
60847;SDS011;46681;47.696;9.140;2023-09-12T14:57:03;7.07;;;6.20;;
60847;SDS011;46681;47.696;9.140;2023-09-12T14:59:57;6.43;;;5.53;;
60847;SDS011;46681;47.696;9.140;2023-09-12T15:02:29;5.47;;;5.07;;
60847;SDS011;46681;47.696;9.140;2023-09-12T15:04:55;6.53;;;5.17;;
60847;SDS011;46681;47.696;9.140;2023-09-12T15:07:47;5.30;;;4.80;;
60847;SDS011;46681;47.696;9.140;2023-09-12T15:13:18;4.60;;;4.20;;
60847;SDS011;46681;47.696;9.140;2023-09-12T15:18:56;4.07;;;3.53;;
60847;SDS011;46681;47.696;9.140;2023-09-12T15:21:46;5.20;;;3.80;;
60847;SDS011;46681;47.696;9.140;2023-09-12T15:24:26;5.17;;;3.50;;
60847;SDS011;46681;47.696;9.140;2023-09-12T15:26:55;4.33;;;3.53;;
60847;SDS011;46681;47.696;9.140;2023-09-12T15:29:39;3.80;;;3.07;;
60847;SDS011;46681;47.696;9.140;2023-09-12T15:32:05;4.00;;;3.60;;
60847;SDS011;46681;47.696;9.140;2023-09-12T15:34:44;4.40;;;3.93;;
60847;SDS011;46681;47.696;9.140;2023-09-12T15:37:11;3.37;;;3.07;;
60847;SDS011;46681;47.696;9.140;2023-09-12T15:39:43;3.40;;;3.10;;
60847;SDS011;46681;47.696;9.140;2023-09-12T15:42:42;3.47;;;3.27;;
60847;SDS011;46681;47.696;9.140;2023-09-12T15:45:11;4.33;;;3.10;;
60847;SDS011;46681;47.696;9.140;2023-09-12T15:47:40;3.90;;;2.80;;
60847;SDS011;46681;47.696;9.140;2023-09-12T15:50:27;3.43;;;3.17;;
60847;SDS011;46681;47.696;9.140;2023-09-12T15:53:12;3.93;;;2.83;;
60847;SDS011;46681;47.696;9.140;2023-09-12T15:55:56;3.47;;;3.17;;
60847;SDS011;46681;47.696;9.140;2023-09-12T15:58:25;3.23;;;2.73;;
60847;SDS011;46681;47.696;9.140;2023-09-12T16:00:55;2.93;;;2.73;;
60847;SDS011;46681;47.696;9.140;2023-09-12T16:03:21;4.10;;;2.80;;
60847;SDS011;46681;47.696;9.140;2023-09-12T16:05:55;3.67;;;3.33;;
60847;SDS011;46681;47.696;9.140;2023-09-12T16:08:27;4.60;;;2.80;;
60847;SDS011;46681;47.696;9.140;2023-09-12T16:11:18;3.97;;;2.50;;
60847;SDS011;46681;47.696;9.140;2023-09-12T16:13:54;4.73;;;2.60;;
60847;SDS011;46681;47.696;9.140;2023-09-12T16:16:22;2.30;;;2.13;;
60847;SDS011;46681;47.696;9.140;2023-09-12T16:18:56;2.73;;;2.53;;
60847;SDS011;46681;47.696;9.140;2023-09-12T16:21:22;6.73;;;2.60;;
60847;SDS011;46681;47.696;9.140;2023-09-12T16:23:54;3.33;;;2.70;;
60847;SDS011;46681;47.696;9.140;2023-09-12T16:26:44;6.00;;;2.60;;
60847;SDS011;46681;47.696;9.140;2023-09-12T16:29:29;2.87;;;2.47;;
60847;SDS011;46681;47.696;9.140;2023-09-12T16:31:57;4.30;;;2.17;;
60847;SDS011;46681;47.696;9.140;2023-09-12T16:34:25;6.60;;;2.70;;
60847;SDS011;46681;47.696;9.140;2023-09-12T16:36:54;3.00;;;2.57;;
60847;SDS011;46681;47.696;9.140;2023-09-12T16:39:29;2.57;;;2.37;;
60847;SDS011;46681;47.696;9.140;2023-09-12T16:48:19;2.63;;;2.40;;
60847;SDS011;46681;47.696;9.140;2023-09-12T16:50:57;2.87;;;2.63;;
60847;SDS011;46681;47.696;9.140;2023-09-12T16:53:34;2.60;;;2.40;;
60847;SDS011;46681;47.696;9.140;2023-09-12T16:56:37;3.97;;;2.60;;
60847;SDS011;46681;47.696;9.140;2023-09-12T16:59:30;3.83;;;3.07;;
60847;SDS011;46681;47.696;9.140;2023-09-12T17:02:15;4.30;;;2.60;;
60847;SDS011;46681;47.696;9.140;2023-09-12T17:04:45;3.57;;;2.30;;
60847;SDS011;46681;47.696;9.140;2023-09-12T17:07:36;2.67;;;2.47;;
60847;SDS011;46681;47.696;9.140;2023-09-12T17:10:08;3.47;;;2.40;;
60847;SDS011;46681;47.696;9.140;2023-09-12T17:12:36;2.87;;;2.57;;
60847;SDS011;46681;47.696;9.140;2023-09-12T17:15:11;2.30;;;2.20;;
60847;SDS011;46681;47.696;9.140;2023-09-12T17:17:44;3.90;;;2.90;;
60847;SDS011;46681;47.696;9.140;2023-09-12T17:20:30;3.53;;;2.30;;
60847;SDS011;46681;47.696;9.140;2023-09-12T17:23:03;2.60;;;2.40;;
60847;SDS011;46681;47.696;9.140;2023-09-12T17:25:36;5.53;;;2.87;;
60847;SDS011;46681;47.696;9.140;2023-09-12T17:28:17;3.30;;;2.67;;
60847;SDS011;46681;47.696;9.140;2023-09-12T17:30:44;2.63;;;2.30;;
60847;SDS011;46681;47.696;9.140;2023-09-12T17:33:12;5.43;;;2.30;;
60847;SDS011;46681;47.696;9.140;2023-09-12T17:35:56;2.40;;;2.20;;
60847;SDS011;46681;47.696;9.140;2023-09-12T17:38:43;4.20;;;2.30;;
60847;SDS011;46681;47.696;9.140;2023-09-12T17:41:16;2.37;;;2.00;;
60847;SDS011;46681;47.696;9.140;2023-09-12T17:43:57;1.80;;;1.70;;
60847;SDS011;46681;47.696;9.140;2023-09-12T17:46:44;2.63;;;2.30;;
60847;SDS011;46681;47.696;9.140;2023-09-12T17:49:38;2.10;;;1.90;;
60847;SDS011;46681;47.696;9.140;2023-09-12T17:52:22;2.33;;;2.13;;
60847;SDS011;46681;47.696;9.140;2023-09-12T17:54:51;4.60;;;2.60;;
60847;SDS011;46681;47.696;9.140;2023-09-12T17:57:17;5.50;;;2.17;;
60847;SDS011;46681;47.696;9.140;2023-09-12T17:59:50;2.27;;;2.03;;
60847;SDS011;46681;47.696;9.140;2023-09-12T18:02:47;2.93;;;2.30;;
60847;SDS011;46681;47.696;9.140;2023-09-12T18:05:22;2.50;;;2.30;;
60847;SDS011;46681;47.696;9.140;2023-09-12T18:08:05;2.53;;;2.33;;
60847;SDS011;46681;47.696;9.140;2023-09-12T18:10:30;2.30;;;2.10;;
60847;SDS011;46681;47.696;9.140;2023-09-12T18:13:21;3.47;;;2.10;;
60847;SDS011;46681;47.696;9.140;2023-09-12T18:15:56;2.57;;;1.97;;
60847;SDS011;46681;47.696;9.140;2023-09-12T18:18:25;3.27;;;2.47;;
60847;SDS011;46681;47.696;9.140;2023-09-12T18:20:56;2.67;;;2.00;;
60847;SDS011;46681;47.696;9.140;2023-09-12T18:23:26;4.50;;;2.17;;
60847;SDS011;46681;47.696;9.140;2023-09-12T18:26:00;1.93;;;1.83;;
60847;SDS011;46681;47.696;9.140;2023-09-12T18:31:24;2.37;;;1.93;;
60847;SDS011;46681;47.696;9.140;2023-09-12T18:33:58;3.07;;;2.37;;
60847;SDS011;46681;47.696;9.140;2023-09-12T18:36:25;3.83;;;1.80;;
60847;SDS011;46681;47.696;9.140;2023-09-12T18:38:54;2.37;;;1.77;;
60847;SDS011;46681;47.696;9.140;2023-09-12T18:41:22;2.50;;;2.30;;
60847;SDS011;46681;47.696;9.140;2023-09-12T18:43:49;7.27;;;2.00;;
60847;SDS011;46681;47.696;9.140;2023-09-12T18:46:18;3.67;;;2.40;;
60847;SDS011;46681;47.696;9.140;2023-09-12T18:48:50;3.20;;;2.20;;
60847;SDS011;46681;47.696;9.140;2023-09-12T18:51:19;1.97;;;1.83;;
60847;SDS011;46681;47.696;9.140;2023-09-12T18:53:48;3.53;;;2.10;;
60847;SDS011;46681;47.696;9.140;2023-09-12T18:56:16;2.50;;;2.30;;
60847;SDS011;46681;47.696;9.140;2023-09-12T18:58:43;3.73;;;2.07;;
60847;SDS011;46681;47.696;9.140;2023-09-12T19:01:17;2.27;;;2.00;;
60847;SDS011;46681;47.696;9.140;2023-09-12T19:03:45;2.67;;;1.97;;
60847;SDS011;46681;47.696;9.140;2023-09-12T19:06:10;2.87;;;2.00;;
60847;SDS011;46681;47.696;9.140;2023-09-12T19:08:37;3.57;;;2.23;;
60847;SDS011;46681;47.696;9.140;2023-09-12T19:11:06;1.80;;;1.70;;